CheckWX is a tool to help pilots better visualize weather data.  It is not intended as a substitute for an official pre-flight weather briefing.

18:09:17 UTC

KSUN METAR
Friedman Memorial Airport
Hailey, Idaho, USA
Current

19 mins ago

KSUN 171750Z 30009KT 10SM BKN027 OVC070 M09/M13 A2985
Observed
Feb-17 @ 17:50 UTC
Wind
  • 300° at 9 KTS
Visibility
10 SM
Flight Rules
MVFR
Cloud Levels
  • Broken at 2,700' AGL
  • Overcast at 7,000' AGL
Temperature
-9°C / 16°F
Dewpoint
-13°C / 9°F
Humidity
73%
Altimeter
29.85" Hg
Pressure
1010.82 hPa
Previous

1 hour ago

KSUN 171649Z 30006KT 10SM BKN027 OVC070 M09/M13 A2984
Observed
Feb-17 @ 16:49 UTC
Wind
  • 300° at 6 KTS
Visibility
10 SM
Flight Rules
MVFR
Cloud Levels
  • Broken at 2,700' AGL
  • Overcast at 7,000' AGL
Temperature
-9°C / 16°F
Dewpoint
-13°C / 9°F
Humidity
73%
Altimeter
29.84" Hg
Pressure
1010.52 hPa
Previous

2 hours ago

KSUN 171553Z 31009KT 10SM BKN027 OVC070 M11/M14 A2983
Observed
Feb-17 @ 15:53 UTC
Wind
  • 310° at 9 KTS
Visibility
10 SM
Flight Rules
MVFR
Cloud Levels
  • Broken at 2,700' AGL
  • Overcast at 7,000' AGL
Temperature
-11°C / 12°F
Dewpoint
-14°C / 7°F
Humidity
79%
Altimeter
29.83" Hg
Pressure
1010.12 hPa